North Orange, Massachusetts
Current Conditions -  °F | °C
As of 8:52 PM on Wednesday 17 Dec 2014 (Local Time) from KORE Reporting Station
Overcast Overcast  
Wind Chill: 32°   Ceiling: 5500
Heat Index: 37°   Visibility: 10mi
Dew Point: 32°   Wind: 7mph
Humidity: 82%   Direction: 230°SW
Pressure: 29.76"   Gusts: NA
Location:  42.614°N, 72.3011°W
Report Text: KORE 180152Z AUTO 23006KT 10SM SCT040 OVC055 03/00 A2976 RMK AO2 RAE32 SLP084 P0000 T00280000
Loading
Personal Weather Stations






























Interactive Weather Map New forecast layout! Learn more

10-Day Weather Forecast

Advertisements
Track Severe Weather on mobile